Airfield :
LOGIN :

Register | Disclaimer

   EN    FR    IT 

 










Legend :    VFR   Marginal VFR   IFR   Intensive IFR   Very Intensive IFR
Visi :
Ceiling :
>= 8 km
>= 3000ft
5 to 8 km
1000 to 3000 ft
1500m to 5 km
500 to 1000 ft
800 to 1500m
200 to 500 ft
< 800m
< 200 ft
Symbols :   Thunderstorms  Fog  Heavy snow  Heavy precipitations  Wind > 20 kt
SIGMETs :     Misc.  Thunderstorms  Icing  Turbulence  Mountain Waves  Volcanic Ashes






- Airport Elevation : 68 ft
- IATA code : AGH


ESTA - Ängelholm-Helsingborg

CURRENT METAR :
  • 231820Z 28015KT 9999 BKN039 05/02 Q0997

EXPIRED METARs :
  • 231750Z 29013KT 9999 BKN041 05/02 Q0996
  • 231720Z 29011KT 9999 FEW046 04/02 Q0996
  • 231650Z 28013KT CAVOK 04/02 Q0996
  • 231620Z 29011KT CAVOK 04/02 Q0996
  • 231550Z 29011KT 9999 FEW017 BKN064 BKN140 05/02 Q0996
  • 231520Z 28012KT 9999 FEW043 SCT076 BKN094 05/02 Q0996

TAF TAF ESTA
Valid from the 23 at 18:00 until the 23 at 23:00 UTC


231720Z 2318/2323 28012KT 9999 BKN020
TEMPO 2318/2323 28015G25KT SCT020CB



MET'MAP, your aeronautical weather chart ! - Copyright ORBIFLY December 2007 - Disclaimer

ORBIFLY MET'MAP TEAM :

Programming & Development : Alexandra Zaïnal
Concept & original design : Baudouin d'Aumeries
Assistance for programming : Marc-Olivier Méhu
Technical & hardware support : Manuel Goepfert

Contact : metmap@orbifly.com




SOURCES & CREDITS :

   NOAA